Sulligent, Alabama
Current Conditions -  °F | °C
As of 2:55 PM on Sunday 23 Nov 2014 (Local Time) from KM40 Reporting Station
Broken Clouds Broken Clouds  
Wind Chill: 68°   Ceiling: 4200
Heat Index: 68°   Visibility: 9mi
Dew Point: 52°   Wind: 12mph
Humidity: 56%   Direction: 180°S
Pressure: 29.44"   Gusts: 20mph
Location:  33.9°N, 88.13°W
Report Text: KM40 232055Z AUTO 18010G17KT 9SM FEW022 SCT032 BKN042 20/11 A2944 RMK AO2
Loading
Personal Weather Stations






























Interactive Weather Map New forecast layout! Learn more

10-Day Weather Forecast

Advertisements
Track Severe Weather on mobile